createdAt,value
2023-03-05T00:01:13.191Z,3.64
2023-03-05T00:03:40.180Z,3.60
2023-03-05T00:06:07.412Z,3.58
2023-03-05T00:08:34.248Z,3.57
2023-03-05T00:11:06.643Z,3.55
2023-03-05T00:13:33.816Z,3.49
2023-03-05T00:16:06.449Z,3.50
2023-03-05T00:18:33.885Z,3.49
2023-03-05T00:21:00.662Z,3.50
2023-03-05T00:23:27.703Z,3.49
2023-03-05T00:25:54.202Z,3.47
2023-03-05T00:28:20.692Z,3.45
2023-03-05T00:30:47.525Z,3.38
2023-03-05T00:33:14.781Z,3.33
2023-03-05T00:35:46.424Z,3.33
2023-03-05T00:38:13.457Z,3.29
2023-03-05T00:40:41.502Z,3.28
2023-03-05T00:43:08.884Z,3.28
2023-03-05T00:45:35.679Z,3.28
2023-03-05T00:48:03.160Z,3.28
2023-03-05T00:50:29.658Z,3.26
2023-03-05T00:52:56.136Z,3.26
2023-03-05T00:55:22.707Z,3.26
2023-03-05T00:57:49.360Z,3.28
2023-03-05T01:00:16.548Z,3.28
2023-03-05T01:02:43.678Z,3.27
2023-03-05T01:05:14.164Z,3.26
2023-03-05T01:07:40.705Z,3.26
2023-03-05T01:10:11.881Z,3.24
2023-03-05T01:12:38.871Z,3.23
2023-03-05T01:15:06.628Z,3.22
2023-03-05T01:17:33.346Z,3.16
2023-03-05T01:20:00.019Z,3.16
2023-03-05T01:22:26.780Z,3.14
2023-03-05T01:24:53.571Z,3.13
2023-03-05T01:27:20.113Z,3.12
2023-03-05T01:29:46.672Z,3.14
2023-03-05T01:32:13.235Z,3.16
2023-03-05T01:34:41.993Z,3.14
2023-03-05T01:37:09.504Z,3.12
2023-03-05T01:39:36.428Z,3.08
2023-03-05T01:42:04.286Z,3.06
2023-03-05T01:44:32.033Z,3.06
2023-03-05T01:46:58.534Z,3.07
2023-03-05T01:49:33.585Z,3.11
2023-03-05T01:52:18.097Z,3.11
2023-03-05T01:54:54.287Z,3.12
2023-03-05T01:57:24.779Z,3.11
2023-03-05T01:59:56.550Z,3.07
2023-03-05T02:02:23.225Z,3.05
2023-03-05T02:04:54.885Z,3.06
2023-03-05T02:07:22.381Z,3.06
2023-03-05T02:09:49.139Z,3.04
2023-03-05T02:12:16.372Z,3.01
2023-03-05T02:14:46.614Z,3.00
2023-03-05T02:17:13.572Z,3.01
2023-03-05T02:19:48.174Z,3.02
2023-03-05T02:22:16.286Z,3.01
2023-03-05T02:24:42.786Z,3.04
2023-03-05T02:27:09.477Z,3.02
2023-03-05T02:29:40.924Z,3.01
2023-03-05T02:32:08.624Z,2.98
2023-03-05T02:34:36.110Z,2.90
2023-03-05T02:37:04.575Z,2.82
2023-03-05T02:39:33.288Z,2.77
2023-03-05T02:42:00.121Z,2.72
2023-03-05T02:44:27.693Z,2.68
2023-03-05T02:46:54.779Z,2.65
2023-03-05T02:49:21.407Z,2.66
2023-03-05T02:51:47.849Z,2.65
2023-03-05T02:54:14.512Z,2.63
2023-03-05T02:56:41.906Z,2.64
2023-03-05T02:59:08.400Z,2.65
2023-03-05T03:01:35.342Z,2.65
2023-03-05T03:04:01.922Z,2.64
2023-03-05T03:06:28.446Z,2.61
2023-03-05T03:08:54.935Z,2.55
2023-03-05T03:11:21.547Z,2.55
2023-03-05T03:13:48.094Z,2.53
2023-03-05T03:16:15.502Z,2.53
2023-03-05T03:18:42.486Z,2.49
2023-03-05T03:21:08.935Z,2.47
2023-03-05T03:23:35.633Z,2.46
2023-03-05T03:26:02.228Z,2.45
2023-03-05T03:28:28.745Z,2.46
2023-03-05T03:30:55.339Z,2.47
2023-03-05T03:33:22.344Z,2.49
2023-03-05T03:35:48.825Z,2.52
2023-03-05T03:38:15.350Z,2.54
2023-03-05T03:40:42.323Z,2.55
2023-03-05T03:43:08.932Z,2.58
2023-03-05T03:45:35.438Z,2.60
2023-03-05T03:48:02.121Z,2.61
2023-03-05T03:50:28.593Z,2.63
2023-03-05T03:52:55.149Z,2.64
2023-03-05T03:55:21.632Z,2.69
2023-03-05T03:57:48.061Z,2.72
2023-03-05T04:00:14.893Z,2.74
2023-03-05T04:02:42.948Z,2.75
2023-03-05T04:05:09.702Z,2.78
2023-03-05T04:07:36.199Z,2.81
2023-03-05T04:10:03.269Z,2.85
2023-03-05T04:12:29.741Z,2.88
2023-03-05T04:14:56.254Z,2.90
2023-03-05T04:17:22.843Z,2.90
2023-03-05T04:19:49.331Z,2.90
2023-03-05T04:22:17.670Z,2.93
2023-03-05T04:24:44.569Z,2.92
2023-03-05T04:27:11.223Z,2.91
2023-03-05T04:29:38.602Z,2.92
2023-03-05T04:32:05.377Z,2.90
2023-03-05T04:34:32.892Z,2.91
2023-03-05T04:36:59.504Z,2.91
2023-03-05T04:39:25.994Z,2.93
2023-03-05T04:41:52.457Z,2.93
2023-03-05T04:44:19.212Z,2.96
2023-03-05T04:46:46.069Z,2.98
2023-03-05T04:49:12.689Z,3.01
2023-03-05T04:51:39.172Z,3.02
2023-03-05T04:54:05.700Z,3.02
2023-03-05T04:56:32.153Z,2.98
2023-03-05T04:58:58.931Z,2.95
2023-03-05T05:01:25.819Z,2.92
2023-03-05T05:03:52.433Z,2.94
2023-03-05T05:06:18.898Z,2.96
2023-03-05T05:08:45.350Z,2.98
2023-03-05T05:11:13.934Z,2.98
2023-03-05T05:13:40.402Z,2.98
2023-03-05T05:16:07.619Z,2.99
2023-03-05T05:18:34.260Z,2.98
2023-03-05T05:21:00.889Z,2.97
2023-03-05T05:23:27.514Z,2.97
2023-03-05T05:26:01.743Z,2.97
2023-03-05T05:28:29.005Z,2.98
2023-03-05T05:30:55.657Z,3.00
2023-03-05T05:33:23.128Z,3.04
2023-03-05T05:35:50.066Z,3.06
2023-03-05T05:38:16.781Z,3.06
2023-03-05T05:40:43.282Z,3.06
2023-03-05T05:43:09.802Z,3.07
2023-03-05T05:45:38.562Z,3.07
2023-03-05T05:48:05.159Z,3.06
2023-03-05T05:50:31.616Z,3.07
2023-03-05T05:52:58.100Z,3.07
2023-03-05T05:55:24.582Z,3.07
2023-03-05T05:57:51.110Z,3.07
2023-03-05T06:00:18.114Z,3.08
2023-03-05T06:02:44.772Z,3.08
2023-03-05T06:05:13.457Z,3.09
2023-03-05T06:07:40.285Z,3.08
2023-03-05T06:10:07.708Z,3.10
2023-03-05T06:12:34.167Z,3.10
2023-03-05T06:15:00.650Z,3.12
2023-03-05T06:17:30.769Z,3.14
2023-03-05T06:19:58.390Z,3.16
2023-03-05T06:22:24.994Z,3.16
2023-03-05T06:24:51.478Z,3.19
2023-03-05T06:27:17.992Z,3.19
2023-03-05T06:29:44.465Z,3.21
2023-03-05T06:32:11.061Z,3.17
2023-03-05T06:34:37.805Z,3.16
2023-03-05T06:37:04.248Z,3.14
2023-03-05T06:39:31.624Z,3.14
2023-03-05T06:41:58.313Z,3.17
2023-03-05T06:44:25.681Z,3.17
2023-03-05T06:46:52.323Z,3.16
2023-03-05T06:49:18.872Z,3.19
2023-03-05T06:51:45.338Z,3.23
2023-03-05T06:54:14.708Z,3.28
2023-03-05T06:56:44.034Z,3.30
2023-03-05T06:59:12.462Z,3.30
2023-03-05T07:01:39.218Z,3.31
2023-03-05T07:04:06.741Z,3.33
2023-03-05T07:06:34.824Z,3.35
2023-03-05T07:09:02.004Z,3.36
2023-03-05T07:11:29.709Z,3.39
2023-03-05T07:13:56.184Z,3.44
2023-03-05T07:16:26.086Z,3.49
2023-03-05T07:18:53.181Z,3.53
2023-03-05T07:21:22.382Z,3.58
2023-03-05T07:23:49.351Z,3.63
2023-03-05T07:26:16.834Z,3.70
2023-03-05T07:28:43.986Z,3.75
2023-03-05T07:31:16.432Z,3.75
2023-03-05T07:33:43.000Z,3.74
2023-03-05T07:36:10.118Z,3.80
2023-03-05T07:38:37.223Z,3.88
2023-03-05T07:41:09.759Z,3.96
2023-03-05T07:43:36.434Z,3.98
2023-03-05T07:46:07.903Z,3.97
2023-03-05T07:48:34.517Z,4.05
2023-03-05T07:51:21.694Z,4.09
2023-03-05T07:53:50.060Z,4.17
2023-03-05T07:56:24.185Z,4.21
2023-03-05T07:58:50.713Z,4.29
2023-03-05T08:01:17.340Z,4.29
2023-03-05T08:03:44.225Z,4.32
2023-03-05T08:06:12.323Z,4.38
2023-03-05T08:08:38.912Z,4.40
2023-03-05T08:11:10.869Z,4.47
2023-03-05T08:13:37.552Z,4.49
2023-03-05T08:16:25.796Z,4.51
2023-03-05T08:18:56.068Z,4.54
2023-03-05T08:21:34.715Z,4.49
2023-03-05T08:24:04.148Z,4.47
2023-03-05T08:26:32.897Z,4.45
2023-03-05T08:28:59.937Z,4.30
2023-03-05T08:31:27.568Z,4.24
2023-03-05T08:33:56.758Z,4.24
2023-03-05T08:36:23.394Z,4.18
2023-03-05T08:38:50.661Z,4.14
2023-03-05T08:41:18.689Z,4.16
2023-03-05T08:43:45.155Z,4.16
2023-03-05T08:46:12.809Z,4.23
2023-03-05T08:48:39.368Z,4.32
2023-03-05T08:51:10.958Z,4.40
2023-03-05T08:53:37.467Z,4.50
2023-03-05T08:56:04.196Z,4.60
2023-03-05T08:58:30.914Z,4.66
2023-03-05T09:00:57.504Z,4.63
2023-03-05T09:03:24.005Z,4.67
2023-03-05T09:05:51.484Z,4.69
2023-03-05T09:08:19.769Z,4.68
2023-03-05T09:10:46.683Z,4.68
2023-03-05T09:13:13.175Z,4.84
2023-03-05T09:15:39.725Z,4.96
2023-03-05T09:18:08.939Z,5.07
2023-03-05T09:20:35.933Z,5.20
2023-03-05T09:23:02.888Z,5.25
2023-03-05T09:25:29.359Z,5.20
2023-03-05T09:27:55.854Z,5.24
2023-03-05T09:30:23.080Z,5.26
2023-03-05T09:32:51.013Z,5.16
2023-03-05T09:35:17.491Z,5.15
2023-03-05T09:37:44.001Z,5.14
2023-03-05T09:40:15.905Z,5.17
2023-03-05T09:43:01.423Z,5.35
2023-03-05T09:45:39.560Z,5.50
2023-03-05T09:48:35.468Z,5.49
2023-03-05T09:51:05.167Z,5.49
2023-03-05T09:53:43.021Z,5.40
2023-03-05T09:56:13.851Z,5.42
2023-03-05T09:58:54.600Z,5.50
2023-03-05T10:01:29.634Z,5.48
2023-03-05T10:04:25.821Z,5.53
2023-03-05T10:07:08.916Z,5.50
2023-03-05T10:09:59.050Z,5.49
2023-03-05T10:12:42.858Z,5.46
2023-03-05T10:15:52.052Z,5.38
2023-03-05T10:18:24.738Z,5.28
2023-03-05T10:20:56.771Z,5.27
2023-03-05T10:23:29.595Z,5.19
2023-03-05T10:26:17.798Z,5.16
2023-03-05T10:29:21.150Z,5.20
2023-03-05T10:31:56.683Z,5.28
2023-03-05T10:34:31.179Z,5.38
2023-03-05T10:37:22.510Z,5.41
2023-03-05T10:40:00.361Z,5.48
2023-03-05T10:42:45.629Z,5.52
2023-03-05T10:45:21.197Z,5.52
2023-03-05T10:48:39.110Z,5.45
2023-03-05T10:51:26.009Z,5.52
2023-03-05T10:53:58.055Z,5.54
2023-03-05T10:56:27.678Z,5.44
2023-03-05T10:58:54.822Z,5.32
2023-03-05T11:01:28.047Z,5.28
2023-03-05T11:03:58.204Z,5.34
2023-03-05T11:06:38.070Z,5.48
2023-03-05T11:09:32.179Z,5.71
2023-03-05T11:12:16.117Z,5.73
2023-03-05T11:15:02.673Z,5.77
2023-03-05T11:17:37.454Z,5.88
2023-03-05T11:20:23.075Z,6.02
2023-03-05T11:23:11.200Z,5.92
2023-03-05T11:26:02.213Z,5.92
2023-03-05T11:28:35.906Z,5.93
2023-03-05T11:31:07.720Z,5.91
2023-03-05T11:33:36.808Z,6.00
2023-03-05T11:36:12.194Z,6.15
2023-03-05T11:38:50.079Z,6.24
2023-03-05T11:41:21.103Z,6.35
2023-03-05T11:43:49.488Z,6.37
2023-03-05T11:46:16.544Z,6.36
2023-03-05T11:48:45.097Z,6.37
2023-03-05T11:51:36.352Z,6.60
2023-03-05T11:54:08.877Z,6.70
2023-03-05T11:56:37.444Z,6.67
2023-03-05T11:59:14.737Z,6.52
2023-03-05T12:01:46.740Z,6.45
2023-03-05T12:04:13.925Z,6.46
2023-03-05T12:06:45.987Z,6.36
2023-03-05T12:09:37.810Z,6.18
2023-03-05T12:12:36.294Z,6.12
2023-03-05T12:15:11.918Z,5.99
2023-03-05T12:17:54.756Z,5.83
2023-03-05T12:20:40.047Z,5.69
2023-03-05T12:23:12.358Z,5.58
2023-03-05T12:25:41.741Z,5.58
2023-03-05T12:28:15.406Z,5.50
2023-03-05T12:30:42.275Z,5.49
2023-03-05T12:33:32.939Z,5.46
2023-03-05T12:36:20.950Z,5.49
2023-03-05T12:38:53.845Z,5.46
2023-03-05T12:41:23.525Z,5.43
2023-03-05T12:44:05.182Z,5.42
2023-03-05T12:46:38.301Z,5.47
2023-03-05T12:49:20.377Z,5.53
2023-03-05T12:51:52.110Z,5.52
2023-03-05T12:54:39.816Z,5.68
2023-03-05T12:57:17.563Z,5.91
2023-03-05T13:00:10.865Z,6.16
2023-03-05T13:02:40.985Z,6.39
2023-03-05T13:05:21.641Z,6.57
2023-03-05T13:07:49.460Z,6.61
2023-03-05T13:10:29.308Z,6.50
2023-03-05T13:12:58.469Z,6.47
2023-03-05T13:15:26.509Z,6.49
2023-03-05T13:18:03.332Z,6.49
2023-03-05T13:20:38.721Z,6.52
2023-03-05T13:23:07.967Z,6.52
2023-03-05T13:25:34.533Z,6.43
2023-03-05T13:28:06.857Z,6.34
2023-03-05T13:30:34.738Z,6.28
2023-03-05T13:33:03.743Z,6.32
2023-03-05T13:35:32.426Z,6.36
2023-03-05T13:37:59.270Z,6.46
2023-03-05T13:40:31.846Z,6.38
2023-03-05T13:43:13.430Z,6.28
2023-03-05T13:45:40.088Z,6.30
2023-03-05T13:48:07.398Z,6.31
2023-03-05T13:50:37.623Z,6.24
2023-03-05T13:53:27.053Z,6.23
2023-03-05T13:56:00.218Z,6.16
2023-03-05T13:58:50.782Z,6.10
2023-03-05T14:01:42.551Z,6.06
2023-03-05T14:04:15.632Z,5.98
2023-03-05T14:06:52.101Z,5.92
2023-03-05T14:09:28.768Z,5.84
2023-03-05T14:12:00.721Z,5.81
2023-03-05T14:14:29.131Z,5.86
2023-03-05T14:16:56.271Z,5.94
2023-03-05T14:19:40.708Z,6.02
2023-03-05T14:22:40.795Z,6.01
2023-03-05T14:25:39.637Z,5.95
2023-03-05T14:28:24.457Z,5.96
2023-03-05T14:30:53.966Z,5.96
2023-03-05T14:33:26.497Z,5.98
2023-03-05T14:35:53.939Z,6.03
2023-03-05T14:38:24.599Z,6.02
2023-03-05T14:40:51.107Z,6.02
2023-03-05T14:43:17.641Z,6.04
2023-03-05T14:45:44.852Z,6.12
2023-03-05T14:48:13.995Z,6.15
2023-03-05T14:50:47.295Z,6.11
2023-03-05T14:53:17.183Z,6.08
2023-03-05T14:55:44.734Z,6.09
2023-03-05T14:58:14.972Z,6.10
2023-03-05T15:00:41.791Z,6.13
2023-03-05T15:03:12.352Z,6.08
2023-03-05T15:05:39.584Z,6.06
2023-03-05T15:08:06.364Z,6.07
2023-03-05T15:10:32.882Z,6.07
2023-03-05T15:12:59.371Z,6.07
2023-03-05T15:15:26.267Z,6.10
2023-03-05T15:17:54.946Z,6.12
2023-03-05T15:20:27.297Z,6.15
2023-03-05T15:22:54.246Z,6.22
2023-03-05T15:25:22.438Z,6.24
2023-03-05T15:27:50.849Z,6.25
2023-03-05T15:30:26.086Z,6.21
2023-03-05T15:32:54.866Z,6.20
2023-03-05T15:35:23.227Z,6.16
2023-03-05T15:37:49.791Z,6.17
2023-03-05T15:40:16.620Z,6.22
2023-03-05T15:42:43.336Z,6.24
2023-03-05T15:45:10.493Z,6.18
2023-03-05T15:47:36.922Z,6.13
2023-03-05T15:50:03.641Z,6.10
2023-03-05T15:52:30.158Z,6.09
2023-03-05T15:54:56.591Z,6.13
2023-03-05T15:57:23.650Z,6.19
2023-03-05T15:59:50.161Z,6.15
2023-03-05T16:02:16.794Z,6.12
2023-03-05T16:04:43.274Z,6.11
2023-03-05T16:07:11.786Z,6.06
2023-03-05T16:09:45.948Z,6.05
2023-03-05T16:12:18.028Z,6.06
2023-03-05T16:14:45.760Z,6.06
2023-03-05T16:17:13.428Z,6.08
2023-03-05T16:19:44.283Z,6.08
2023-03-05T16:22:10.766Z,6.11
2023-03-05T16:24:37.289Z,6.12
2023-03-05T16:27:04.692Z,6.11
2023-03-05T16:29:32.486Z,6.07
2023-03-05T16:32:02.274Z,6.02
2023-03-05T16:34:28.764Z,5.95
2023-03-05T16:36:55.477Z,5.92
2023-03-05T16:39:22.651Z,5.91
2023-03-05T16:41:50.161Z,5.91
2023-03-05T16:44:16.578Z,5.91
2023-03-05T16:46:47.259Z,5.91
2023-03-05T16:49:13.712Z,5.89
2023-03-05T16:51:40.216Z,5.88
2023-03-05T16:54:09.048Z,5.89
2023-03-05T16:56:36.669Z,5.89
2023-03-05T16:59:04.218Z,5.83
2023-03-05T17:01:31.077Z,5.81
2023-03-05T17:03:59.393Z,5.75
2023-03-05T17:06:28.844Z,5.70
2023-03-05T17:08:55.839Z,5.66
2023-03-05T17:11:22.504Z,5.61
2023-03-05T17:13:49.282Z,5.61
2023-03-05T17:16:17.839Z,5.56
2023-03-05T17:18:44.653Z,5.34
2023-03-05T17:21:12.770Z,5.18
2023-03-05T17:23:40.053Z,5.07
2023-03-05T17:26:09.205Z,5.04
2023-03-05T17:28:35.884Z,5.02
2023-03-05T17:31:03.892Z,4.97
2023-03-05T17:33:34.686Z,4.98
2023-03-05T17:36:01.526Z,4.98
2023-03-05T17:38:28.177Z,5.02
2023-03-05T17:40:54.894Z,5.01
2023-03-05T17:43:21.897Z,5.00
2023-03-05T17:45:48.785Z,4.98
2023-03-05T17:48:15.989Z,4.99
2023-03-05T17:50:44.821Z,5.00
2023-03-05T17:53:11.532Z,5.00
2023-03-05T17:55:39.984Z,5.01
2023-03-05T17:58:06.523Z,4.96
2023-03-05T18:00:33.431Z,4.93
2023-03-05T18:03:00.183Z,4.87
2023-03-05T18:05:27.802Z,4.82
2023-03-05T18:07:55.563Z,4.80
2023-03-05T18:10:24.939Z,4.80
2023-03-05T18:12:51.797Z,4.80
2023-03-05T18:15:21.367Z,4.80
2023-03-05T18:17:48.366Z,4.81
2023-03-05T18:20:41.818Z,4.79
2023-03-05T18:23:09.946Z,4.77
2023-03-05T18:25:36.547Z,4.75
2023-03-05T18:28:08.856Z,4.72
2023-03-05T18:30:36.413Z,4.70
2023-03-05T18:33:03.902Z,4.72
2023-03-05T18:35:30.963Z,4.73
2023-03-05T18:37:57.993Z,4.74
2023-03-05T18:40:26.717Z,4.73
2023-03-05T18:42:53.176Z,4.74
2023-03-05T18:45:22.255Z,4.71
2023-03-05T18:47:53.885Z,4.68
2023-03-05T18:50:22.626Z,4.68
2023-03-05T18:52:49.622Z,4.69
2023-03-05T18:55:19.246Z,4.70
2023-03-05T18:57:46.130Z,4.70
2023-03-05T19:00:18.422Z,4.71
2023-03-05T19:02:44.930Z,4.71
2023-03-05T19:05:14.064Z,4.73
2023-03-05T19:07:41.006Z,4.74
2023-03-05T19:10:09.858Z,4.76
2023-03-05T19:12:45.429Z,4.78
2023-03-05T19:15:13.254Z,4.80
2023-03-05T19:17:40.413Z,4.81
2023-03-05T19:20:08.181Z,4.84
2023-03-05T19:22:34.877Z,4.86
2023-03-05T19:25:01.775Z,4.88
2023-03-05T19:27:28.362Z,4.90
2023-03-05T19:29:54.949Z,4.91
2023-03-05T19:32:21.939Z,4.93
2023-03-05T19:34:49.106Z,4.93
2023-03-05T19:37:15.753Z,4.93
2023-03-05T19:39:42.428Z,4.93
2023-03-05T19:42:08.914Z,4.96
2023-03-05T19:44:35.479Z,4.95
2023-03-05T19:47:02.367Z,4.95
2023-03-05T19:49:28.861Z,4.94
2023-03-05T19:51:55.485Z,4.94
2023-03-05T19:54:22.911Z,4.94
2023-03-05T19:56:50.185Z,4.91
2023-03-05T19:59:18.706Z,4.91
2023-03-05T20:01:46.005Z,4.89
2023-03-05T20:04:15.628Z,4.88
2023-03-05T20:06:42.323Z,4.89
2023-03-05T20:09:09.743Z,4.88
2023-03-05T20:11:36.622Z,4.86
2023-03-05T20:14:03.706Z,4.84
2023-03-05T20:16:35.208Z,4.83
2023-03-05T20:19:03.136Z,4.81
2023-03-05T20:21:33.739Z,4.76
2023-03-05T20:24:04.739Z,4.74
2023-03-05T20:26:35.436Z,4.74
2023-03-05T20:29:04.753Z,4.73
2023-03-05T20:31:35.292Z,4.71
2023-03-05T20:34:01.959Z,4.74
2023-03-05T20:36:28.420Z,4.74
2023-03-05T20:38:55.793Z,4.75
2023-03-05T20:41:22.598Z,4.77
2023-03-05T20:43:50.656Z,4.76
2023-03-05T20:46:29.307Z,4.78
2023-03-05T20:48:59.079Z,4.77
2023-03-05T20:51:37.874Z,4.79
2023-03-05T20:54:10.036Z,4.78
2023-03-05T20:56:37.444Z,4.79
2023-03-05T20:59:08.488Z,4.78
2023-03-05T21:01:37.549Z,4.77
2023-03-05T21:04:04.453Z,4.76
2023-03-05T21:06:32.752Z,4.75
2023-03-05T21:08:59.877Z,4.75
2023-03-05T21:11:26.646Z,4.75
2023-03-05T21:13:53.652Z,4.74
2023-03-05T21:16:23.884Z,4.75
2023-03-05T21:18:51.200Z,4.75
2023-03-05T21:21:18.760Z,4.75
2023-03-05T21:23:46.206Z,4.76
2023-03-05T21:26:13.592Z,4.75
2023-03-05T21:28:40.556Z,4.74
2023-03-05T21:31:15.049Z,4.71
2023-03-05T21:33:45.049Z,4.69
2023-03-05T21:36:12.160Z,4.67
2023-03-05T21:38:38.966Z,4.66
2023-03-05T21:41:05.707Z,4.66
2023-03-05T21:43:32.560Z,4.65
2023-03-05T21:46:01.409Z,4.64
2023-03-05T21:48:27.955Z,4.63
2023-03-05T21:50:55.228Z,4.63
2023-03-05T21:53:22.160Z,4.61
2023-03-05T21:56:15.381Z,4.60
2023-03-05T21:58:41.816Z,4.59
2023-03-05T22:01:11.492Z,4.60
2023-03-05T22:03:40.800Z,4.58
2023-03-05T22:06:11.782Z,4.57
2023-03-05T22:08:38.353Z,4.56
2023-03-05T22:11:17.300Z,4.54
2023-03-05T22:13:44.320Z,4.52
2023-03-05T22:16:11.396Z,4.50
2023-03-05T22:18:37.996Z,4.48
2023-03-05T22:21:04.714Z,4.48
2023-03-05T22:23:36.862Z,4.46
2023-03-05T22:26:07.629Z,4.46
2023-03-05T22:28:35.790Z,4.44
2023-03-05T22:31:02.775Z,4.45
2023-03-05T22:33:29.499Z,4.44
2023-03-05T22:35:56.316Z,4.40
2023-03-05T22:38:23.136Z,4.40
2023-03-05T22:40:50.323Z,4.40
2023-03-05T22:43:18.262Z,4.40
2023-03-05T22:45:45.143Z,4.39
2023-03-05T22:48:11.990Z,4.39
2023-03-05T22:50:39.740Z,4.39
2023-03-05T22:53:06.294Z,4.38
2023-03-05T22:55:32.813Z,4.37
2023-03-05T22:57:59.262Z,4.37
2023-03-05T23:00:26.735Z,4.37
2023-03-05T23:02:53.965Z,4.36
2023-03-05T23:05:20.834Z,4.34
2023-03-05T23:07:47.405Z,4.32
2023-03-05T23:10:18.040Z,4.32
2023-03-05T23:12:49.289Z,4.31
2023-03-05T23:15:22.502Z,4.29
2023-03-05T23:17:49.631Z,4.28
2023-03-05T23:20:18.044Z,4.30
2023-03-05T23:22:45.112Z,4.31
2023-03-05T23:25:13.939Z,4.30
2023-03-05T23:27:40.834Z,4.29
2023-03-05T23:30:16.555Z,4.29
2023-03-05T23:32:45.269Z,4.28
2023-03-05T23:35:13.843Z,4.29
2023-03-05T23:37:41.215Z,4.28
2023-03-05T23:40:11.430Z,4.26
2023-03-05T23:42:38.466Z,4.24
2023-03-05T23:45:07.144Z,4.23
2023-03-05T23:47:36.938Z,4.22
2023-03-05T23:50:05.974Z,4.22
2023-03-05T23:52:32.672Z,4.21
2023-03-05T23:54:59.523Z,4.18
2023-03-05T23:57:25.998Z,4.17
2023-03-05T23:59:52.552Z,4.15
